Wednesday, January 17, 2018, 1:22 PM GMT
Back to Local

CWNQ, Nicolet Automatic Weather Reporting System

Location: , , Canada Lat: 46.217
Local Time: 1:22 PM GMT (13:22 GMT) Lon: -72.65
Time Zone: GMT Elev: 32 ft

Show me the last for .
Show Coded

Time T Td Feel RH Dir Speed Gust Alt SLP Vis Weather Sky Remarks
2018-01-17 13:00 10 7 - 88 130° 1 - - 30.35 0 None
2018-01-17 12:00 9 6 - 88 110° 1 - - 30.36 0 None
2018-01-17 11:00 9 6 - 88 80° 1 - - 30.37 0 None
2018-01-17 10:00 8 5 - 87 50° 1 - - 30.37 0 None
2018-01-17 09:00 8 5 - 87 - Calm - - 30.38 0 None
2018-01-17 08:00 10 5 3 81 60° 3 - - 30.38 0 None
2018-01-17 07:00 9 6 - 88 180° 1 - - 30.39 0 None
2018-01-17 06:00 7 4 - 86 10° 1 - - 30.38 0 None
2018-01-17 05:00 5 4 - 94 30° 1 - - 30.39 0 None
2018-01-17 03:00 2 -1 - 85 60° 1 - - 30.41 0 None
2018-01-17 02:00 6 3 - 87 70° 1 - - 30.42 0 None
2018-01-17 01:00 9 8 - 96 - Calm - - 30.43 0 None
2018-01-17 00:00 10 7 - 88 - Calm - - 30.44 0 None
2018-01-16 23:00 10 7 - 85 - Calm - - 30.44 0 None
2018-01-16 22:00 11 7 - 83 120° 1 - - 30.44 0 None
2018-01-16 21:00 13 7 - 77 70° 1 - - 30.43 0 None
2018-01-16 20:00 13 7 7 75 80° 3 - - 30.42 0 None
2018-01-16 19:00 13 7 - 77 30° 2 - - 30.42 0 None
2018-01-16 18:00 12 6 6 76 50° 3 - - 30.43 0 None
2018-01-16 17:00 11 5 3 78 40° 5 - - 30.44 0 None
2018-01-16 16:00 10 4 0 78 40° 6 - - 30.46 0 None
2018-01-16 15:00 9 4 -3 80 40° 7 - - 30.48 0 None
2018-01-16 14:00 10 3 -2 73 60° 7 - - 30.48 0 None

Support USWX by starting your Amazon purchase here.